createdAt,value
2022-08-09T00:00:54.487Z,4.53
2022-08-09T00:04:05.772Z,4.50
2022-08-09T00:10:17.958Z,4.75
2022-08-09T00:13:06.281Z,4.65
2022-08-09T00:16:17.337Z,4.88
2022-08-09T00:18:54.079Z,4.70
2022-08-09T00:21:56.227Z,4.60
2022-08-09T00:26:29.977Z,4.50
2022-08-09T00:33:50.308Z,4.57
2022-08-09T00:40:08.906Z,4.50
2022-08-09T00:45:15.665Z,4.18
2022-08-09T00:47:44.044Z,4.80
2022-08-09T00:50:41.290Z,4.80
2022-08-09T00:53:47.337Z,4.63
2022-08-09T00:57:08.878Z,4.70
2022-08-09T01:03:57.345Z,4.90
2022-08-09T01:10:05.373Z,4.97
2022-08-09T01:12:53.147Z,4.72
2022-08-09T01:15:41.068Z,4.68
2022-08-09T01:19:02.505Z,4.50
2022-08-09T01:25:54.943Z,4.60
2022-08-09T01:32:30.624Z,4.63
2022-08-09T01:44:07.433Z,4.10
2022-08-09T01:47:11.629Z,4.22
2022-08-09T01:49:54.481Z,4.38
2022-08-09T01:55:38.903Z,4.20
2022-08-09T01:58:33.092Z,4.13
2022-08-09T02:01:18.425Z,4.65
2022-08-09T02:03:47.539Z,4.75
2022-08-09T02:10:01.197Z,4.43
2022-08-09T02:12:36.565Z,4.32
2022-08-09T02:15:16.972Z,4.18
2022-08-09T02:18:00.890Z,4.47
2022-08-09T02:28:04.214Z,5.03
2022-08-09T02:31:06.196Z,4.40
2022-08-09T02:34:51.849Z,4.55
2022-08-09T02:41:16.415Z,4.30
2022-08-09T02:43:55.639Z,4.03
2022-08-09T02:46:29.857Z,4.68
2022-08-09T02:53:26.191Z,4.28
2022-08-09T02:55:58.779Z,4.30
2022-08-09T02:58:32.626Z,4.32
2022-08-09T03:01:08.109Z,4.25
2022-08-09T03:04:17.258Z,4.05
2022-08-09T03:06:34.263Z,4.20
2022-08-09T03:12:45.084Z,4.13
2022-08-09T03:16:04.313Z,3.88
2022-08-09T03:19:59.089Z,3.97
2022-08-09T03:22:56.908Z,3.67
2022-08-09T03:26:33.124Z,3.92
2022-08-09T03:30:04.508Z,3.80
2022-08-09T03:33:19.552Z,3.67
2022-08-09T03:36:16.214Z,3.88
2022-08-09T03:39:38.092Z,3.63
2022-08-09T03:42:07.162Z,3.80
2022-08-09T03:44:34.556Z,3.80
2022-08-09T03:47:50.566Z,4.10
2022-08-09T03:55:09.775Z,4.68
2022-08-09T03:58:16.871Z,3.83
2022-08-09T04:01:05.496Z,3.83
2022-08-09T04:04:02.093Z,4.05
2022-08-09T04:06:33.808Z,3.70
2022-08-09T04:09:15.087Z,3.78
2022-08-09T04:12:40.724Z,3.78
2022-08-09T04:18:27.328Z,3.40
2022-08-09T04:27:48.832Z,3.75
2022-08-09T04:39:22.010Z,3.42
2022-08-09T04:42:11.353Z,3.60
2022-08-09T04:52:39.344Z,3.20
2022-08-09T04:55:19.477Z,3.50
2022-08-09T05:05:51.862Z,3.67
2022-08-09T05:12:55.185Z,4.38
2022-08-09T05:15:52.325Z,3.45
2022-08-09T05:22:35.748Z,4.00
2022-08-09T05:25:05.072Z,4.00
2022-08-09T05:27:32.398Z,3.85
2022-08-09T05:30:08.361Z,4.50
2022-08-09T05:32:39.744Z,3.75
2022-08-09T05:35:09.973Z,4.00
2022-08-09T05:37:47.599Z,3.88
2022-08-09T05:40:15.430Z,4.00
2022-08-09T05:42:43.505Z,3.83
2022-08-09T05:45:17.078Z,3.80
2022-08-09T05:47:51.684Z,3.88
2022-08-09T05:50:36.100Z,4.10
2022-08-09T05:53:30.890Z,3.80
2022-08-09T05:56:16.250Z,3.92
2022-08-09T05:58:44.924Z,3.30
2022-08-09T06:01:15.823Z,3.17
2022-08-09T06:03:58.464Z,3.78
2022-08-09T06:06:26.098Z,3.20
2022-08-09T06:08:53.782Z,3.38
2022-08-09T06:11:21.174Z,3.60
2022-08-09T06:14:18.206Z,3.10
2022-08-09T06:16:52.694Z,3.10
2022-08-09T06:19:20.047Z,3.00
2022-08-09T06:22:15.616Z,3.15
2022-08-09T06:24:45.299Z,3.58
2022-08-09T06:27:15.631Z,2.70
2022-08-09T06:29:58.487Z,3.08
2022-08-09T06:32:53.497Z,2.78
2022-08-09T06:35:20.082Z,3.15
2022-08-09T06:37:52.806Z,2.85
2022-08-09T06:40:33.428Z,3.15
2022-08-09T06:43:01.304Z,2.92
2022-08-09T06:46:05.463Z,2.95
2022-08-09T06:48:30.489Z,2.90
2022-08-09T06:51:00.095Z,2.90
2022-08-09T06:53:33.295Z,2.90
2022-08-09T06:56:09.778Z,2.55
2022-08-09T07:00:47.763Z,2.53
2022-08-09T07:01:53.562Z,2.78
2022-08-09T07:04:20.419Z,2.47
2022-08-09T07:06:53.523Z,2.83
2022-08-09T07:09:55.439Z,2.88
2022-08-09T07:12:20.274Z,2.60
2022-08-09T07:17:39.555Z,2.47
2022-08-09T07:20:08.112Z,2.70
2022-08-09T07:22:42.255Z,2.75
2022-08-09T07:25:16.801Z,3.17
2022-08-09T07:27:53.423Z,2.63
2022-08-09T07:30:25.279Z,2.30
2022-08-09T07:32:54.930Z,2.75
2022-08-09T07:35:23.312Z,2.53
2022-08-09T07:37:54.033Z,2.58
2022-08-09T07:40:37.358Z,2.53
2022-08-09T07:43:55.720Z,2.47
2022-08-09T07:46:25.291Z,2.75
2022-08-09T07:48:59.263Z,2.45
2022-08-09T07:52:06.016Z,2.60
2022-08-09T07:54:28.281Z,2.92
2022-08-09T07:56:58.579Z,2.22
2022-08-09T07:59:45.459Z,2.38
2022-08-09T08:02:19.659Z,2.50
2022-08-09T08:04:48.661Z,2.60
2022-08-09T08:08:44.515Z,2.72
2022-08-09T08:10:08.869Z,2.85
2022-08-09T08:12:43.088Z,3.65
2022-08-09T08:15:16.776Z,3.10
2022-08-09T08:17:58.404Z,3.00
2022-08-09T08:20:32.861Z,3.13
2022-08-09T08:23:06.492Z,3.00
2022-08-09T08:25:50.417Z,2.80
2022-08-09T08:28:35.044Z,2.80
2022-08-09T08:31:24.581Z,2.58
2022-08-09T08:34:28.776Z,2.67
2022-08-09T08:36:56.641Z,2.90
2022-08-09T08:39:23.974Z,3.28
2022-08-09T08:41:53.067Z,2.88
2022-08-09T08:44:27.311Z,2.63
2022-08-09T08:47:04.414Z,2.63
2022-08-09T08:49:47.738Z,2.83
2022-08-09T08:52:58.148Z,2.88
2022-08-09T08:55:23.175Z,3.10
2022-08-09T08:57:57.120Z,2.60
2022-08-09T09:00:29.940Z,3.13
2022-08-09T09:03:11.278Z,2.90
2022-08-09T09:05:58.722Z,2.97
2022-08-09T09:08:59.645Z,2.95
2022-08-09T09:11:29.689Z,2.67
2022-08-09T09:14:08.328Z,2.88
2022-08-09T09:16:43.559Z,3.17
2022-08-09T09:22:07.777Z,3.25
2022-08-09T09:24:47.267Z,3.17
2022-08-09T09:28:05.804Z,3.47
2022-08-09T09:30:26.261Z,3.33
2022-08-09T09:33:15.830Z,3.38
2022-08-09T09:36:01.896Z,2.97
2022-08-09T09:38:40.303Z,3.03
2022-08-09T09:41:48.885Z,3.70
2022-08-09T09:44:27.964Z,3.42
2022-08-09T09:47:10.407Z,2.85
2022-08-09T09:50:07.275Z,3.17
2022-08-09T09:52:36.846Z,2.88
2022-08-09T09:55:28.779Z,3.55
2022-08-09T09:58:16.330Z,3.20
2022-08-09T10:00:52.708Z,3.17
2022-08-09T10:04:01.480Z,3.35
2022-08-09T10:06:42.654Z,3.00
2022-08-09T10:09:22.222Z,2.92
2022-08-09T10:12:07.584Z,3.20
2022-08-09T10:14:40.427Z,2.92
2022-08-09T10:17:39.295Z,2.92
2022-08-09T10:20:32.111Z,3.22
2022-08-09T10:23:17.384Z,3.17
2022-08-09T10:26:06.459Z,3.40
2022-08-09T10:28:37.432Z,3.22
2022-08-09T10:34:08.038Z,3.40
2022-08-09T10:36:39.769Z,3.40
2022-08-09T10:39:16.041Z,3.58
2022-08-09T10:41:49.938Z,3.50
2022-08-09T10:44:29.081Z,3.40
2022-08-09T10:48:20.232Z,3.85
2022-08-09T10:50:57.107Z,3.42
2022-08-09T10:53:46.975Z,3.60
2022-08-09T10:56:25.481Z,3.20
2022-08-09T10:58:58.109Z,3.10
2022-08-09T11:03:10.880Z,3.40
2022-08-09T11:04:30.219Z,3.58
2022-08-09T11:07:02.293Z,3.20
2022-08-09T11:09:47.732Z,3.40
2022-08-09T11:12:18.203Z,3.25
2022-08-09T11:15:23.913Z,3.10
2022-08-09T11:18:03.865Z,3.00
2022-08-09T11:20:44.377Z,3.50
2022-08-09T11:23:13.564Z,2.97
2022-08-09T11:25:47.967Z,3.28
2022-08-09T11:31:34.047Z,3.30
2022-08-09T11:34:10.022Z,3.58
2022-08-09T11:36:43.720Z,3.28
2022-08-09T11:39:26.110Z,3.53
2022-08-09T11:42:14.956Z,3.83
2022-08-09T11:44:48.370Z,3.60
2022-08-09T11:47:56.420Z,3.50
2022-08-09T11:50:54.129Z,3.70
2022-08-09T11:53:59.425Z,3.63
2022-08-09T11:56:19.403Z,3.42
2022-08-09T11:58:58.092Z,3.47
2022-08-09T12:02:01.089Z,3.55
2022-08-09T12:04:28.895Z,3.30
2022-08-09T12:07:08.309Z,3.00
2022-08-09T12:10:02.342Z,3.45
2022-08-09T12:12:44.773Z,3.70
2022-08-09T12:15:49.533Z,3.80
2022-08-09T12:18:30.320Z,3.60
2022-08-09T12:21:03.531Z,3.60
2022-08-09T12:24:08.677Z,3.70
2022-08-09T12:29:11.255Z,3.53
2022-08-09T12:29:52.317Z,3.60
2022-08-09T12:32:27.612Z,3.85
2022-08-09T12:35:02.689Z,3.85
2022-08-09T12:40:29.419Z,3.40
2022-08-09T12:42:57.808Z,3.33
2022-08-09T12:45:33.269Z,3.50
2022-08-09T12:48:27.943Z,3.03
2022-08-09T12:50:59.893Z,3.90
2022-08-09T12:53:37.093Z,3.35
2022-08-09T12:56:39.715Z,3.80
2022-08-09T12:59:19.918Z,3.60
2022-08-09T13:02:09.606Z,3.30
2022-08-09T13:04:38.716Z,3.50
2022-08-09T13:07:14.639Z,3.40
2022-08-09T13:09:52.654Z,3.35
2022-08-09T13:15:30.431Z,3.92
2022-08-09T13:18:06.045Z,3.20
2022-08-09T13:22:34.268Z,3.40
2022-08-09T13:24:07.269Z,3.80
2022-08-09T13:26:49.865Z,3.80
2022-08-09T13:30:02.531Z,3.75
2022-08-09T13:32:35.324Z,3.65
2022-08-09T13:36:24.724Z,3.35
2022-08-09T13:41:17.799Z,3.95
2022-08-09T13:41:58.382Z,3.80
2022-08-09T13:44:32.080Z,3.47
2022-08-09T13:47:26.445Z,3.47
2022-08-09T13:49:58.151Z,3.42
2022-08-09T13:52:29.926Z,3.58
2022-08-09T13:55:00.115Z,3.55
2022-08-09T13:57:37.339Z,3.22
2022-08-09T14:00:17.230Z,3.92
2022-08-09T14:03:16.604Z,3.72
2022-08-09T14:05:57.444Z,3.97
2022-08-09T14:08:22.558Z,3.95
2022-08-09T14:10:52.293Z,3.40
2022-08-09T14:14:24.620Z,3.33
2022-08-09T14:16:33.447Z,3.50
2022-08-09T14:19:37.030Z,3.20
2022-08-09T14:22:04.552Z,3.88
2022-08-09T14:24:33.725Z,3.85
2022-08-09T14:27:01.324Z,3.83
2022-08-09T14:30:36.687Z,4.15
2022-08-09T14:32:38.826Z,3.03
2022-08-09T14:35:52.245Z,3.17
2022-08-09T14:38:27.098Z,3.45
2022-08-09T14:41:00.999Z,3.50
2022-08-09T14:43:47.786Z,3.75
2022-08-09T14:46:54.079Z,3.25
2022-08-09T14:49:10.575Z,3.30
2022-08-09T14:51:43.421Z,3.53
2022-08-09T14:54:10.944Z,3.83
2022-08-09T14:57:08.859Z,3.30
2022-08-09T14:59:48.557Z,3.70
2022-08-09T15:02:20.481Z,3.10
2022-08-09T15:04:57.432Z,3.75
2022-08-09T15:07:28.644Z,3.45
2022-08-09T15:10:10.820Z,3.30
2022-08-09T15:12:44.846Z,3.75
2022-08-09T15:15:16.719Z,3.88
2022-08-09T15:17:47.245Z,3.50
2022-08-09T15:21:56.827Z,3.40
2022-08-09T15:24:08.961Z,3.15
2022-08-09T15:25:59.439Z,3.33
2022-08-09T15:28:27.756Z,3.45
2022-08-09T15:31:10.149Z,3.63
2022-08-09T15:34:17.616Z,3.47
2022-08-09T15:36:34.716Z,3.60
2022-08-09T15:39:02.011Z,3.45
2022-08-09T15:41:31.479Z,3.53
2022-08-09T15:44:02.079Z,3.50
2022-08-09T15:46:33.452Z,3.50
2022-08-09T15:49:22.557Z,3.40
2022-08-09T15:52:04.553Z,3.10
2022-08-09T15:54:49.482Z,3.35
2022-08-09T15:57:19.106Z,3.60
2022-08-09T16:00:14.211Z,3.33
2022-08-09T16:02:48.132Z,3.60
2022-08-09T16:05:23.218Z,3.45
2022-08-09T16:07:50.948Z,3.35
2022-08-09T16:10:55.222Z,2.90
2022-08-09T16:13:21.085Z,3.30
2022-08-09T16:16:27.973Z,2.95
2022-08-09T16:18:55.729Z,3.10
2022-08-09T16:21:25.648Z,2.80
2022-08-09T16:23:58.588Z,2.92
2022-08-09T16:26:33.918Z,3.33
2022-08-09T16:29:12.599Z,2.92
2022-08-09T16:32:18.258Z,3.00
2022-08-09T16:34:29.400Z,3.28
2022-08-09T16:37:17.463Z,3.22
2022-08-09T16:39:54.546Z,3.28
2022-08-09T16:42:36.369Z,3.00
2022-08-09T16:45:06.152Z,2.80
2022-08-09T16:48:42.029Z,3.05
2022-08-09T16:50:31.801Z,3.17
2022-08-09T16:53:09.682Z,2.63
2022-08-09T16:55:58.760Z,2.42
2022-08-09T16:58:52.935Z,2.55
2022-08-09T17:01:23.812Z,2.83
2022-08-09T17:04:02.785Z,2.60
2022-08-09T17:06:33.360Z,2.97
2022-08-09T17:09:17.738Z,2.90
2022-08-09T17:11:54.416Z,2.97
2022-08-09T17:14:28.148Z,2.90
2022-08-09T17:17:02.733Z,2.72
2022-08-09T17:19:46.449Z,2.35
2022-08-09T17:22:33.921Z,2.80
2022-08-09T17:25:14.222Z,3.03
2022-08-09T17:27:49.565Z,2.90
2022-08-09T17:30:26.538Z,2.88
2022-08-09T17:33:21.910Z,3.03
2022-08-09T17:35:50.429Z,3.00
2022-08-09T17:38:30.485Z,2.85
2022-08-09T17:41:02.844Z,2.90
2022-08-09T17:43:34.830Z,3.03
2022-08-09T17:46:12.617Z,2.92
2022-08-09T17:48:52.288Z,3.72
2022-08-09T17:51:24.605Z,3.20
2022-08-09T17:53:57.763Z,3.25
2022-08-09T17:56:29.310Z,2.63
2022-08-09T17:59:11.372Z,3.10
2022-08-09T18:01:40.714Z,3.60
2022-08-09T18:04:27.771Z,3.22
2022-08-09T18:06:58.112Z,3.33
2022-08-09T18:10:05.117Z,3.08
2022-08-09T18:12:20.076Z,3.05
2022-08-09T18:14:55.073Z,2.90
2022-08-09T18:18:02.363Z,2.90
2022-08-09T18:21:31.846Z,3.35
2022-08-09T18:24:14.261Z,3.63
2022-08-09T18:26:51.955Z,3.40
2022-08-09T18:30:42.771Z,2.85
2022-08-09T18:32:09.476Z,3.33
2022-08-09T18:35:58.482Z,3.00
2022-08-09T18:46:51.158Z,3.60
2022-08-09T18:49:13.885Z,7.43
2022-08-09T18:52:05.805Z,11.23
2022-08-09T18:55:45.572Z,5.25
2022-08-09T19:04:35.219Z,3.75
2022-08-09T19:08:22.317Z,3.13
2022-08-09T19:11:35.113Z,3.20
2022-08-09T19:18:17.162Z,3.20
2022-08-09T19:21:36.284Z,3.42
2022-08-09T19:24:32.133Z,3.65
2022-08-09T19:26:54.508Z,3.60
2022-08-09T19:29:21.994Z,3.60
2022-08-09T19:31:51.415Z,3.60
2022-08-09T19:34:22.597Z,3.38
2022-08-09T19:36:55.492Z,3.20
2022-08-09T19:40:04.745Z,3.50
2022-08-09T19:42:58.241Z,3.05
2022-08-09T19:45:40.415Z,3.83
2022-08-09T19:49:02.247Z,3.92
2022-08-09T19:57:29.107Z,3.00
2022-08-09T20:00:53.810Z,4.03
2022-08-09T20:04:23.945Z,4.10
2022-08-09T20:06:37.964Z,3.60
2022-08-09T20:09:06.338Z,3.75
2022-08-09T20:11:33.964Z,3.83
2022-08-09T20:14:15.339Z,3.47
2022-08-09T20:16:54.374Z,3.70
2022-08-09T20:19:48.799Z,3.80
2022-08-09T20:22:13.926Z,3.85
2022-08-09T20:24:42.927Z,3.42
2022-08-09T20:27:21.425Z,3.65
2022-08-09T20:29:50.427Z,3.78
2022-08-09T20:32:33.147Z,3.20
2022-08-09T20:35:06.438Z,3.67
2022-08-09T20:38:18.801Z,3.50
2022-08-09T20:40:27.303Z,4.13
2022-08-09T20:43:17.841Z,4.00
2022-08-09T20:45:59.385Z,3.75
2022-08-09T20:48:38.327Z,3.00
2022-08-09T20:51:06.935Z,3.88
2022-08-09T20:53:36.329Z,3.53
2022-08-09T20:56:20.231Z,3.40
2022-08-09T20:58:54.525Z,3.95
2022-08-09T21:01:34.196Z,3.25
2022-08-09T21:05:54.482Z,3.15
2022-08-09T21:07:16.792Z,3.63
2022-08-09T21:09:56.412Z,3.78
2022-08-09T21:15:16.995Z,2.95
2022-08-09T21:18:23.188Z,3.55
2022-08-09T21:20:33.063Z,3.70
2022-08-09T21:23:03.466Z,3.40
2022-08-09T21:25:56.130Z,3.58
2022-08-09T21:28:33.612Z,3.20
2022-08-09T21:33:51.316Z,3.67
2022-08-09T21:36:28.223Z,3.40
2022-08-09T21:38:59.315Z,3.80
2022-08-09T21:41:59.714Z,3.70
2022-08-09T21:44:32.959Z,3.58
2022-08-09T21:47:07.640Z,3.38
2022-08-09T21:49:39.699Z,3.78
2022-08-09T21:52:17.502Z,3.80
2022-08-09T21:57:37.469Z,3.80
2022-08-09T22:00:25.531Z,3.72
2022-08-09T22:03:04.382Z,4.10
2022-08-09T22:05:42.230Z,3.42
2022-08-09T22:08:14.621Z,4.35
2022-08-09T22:11:48.792Z,3.67
2022-08-09T22:13:43.249Z,4.05
2022-08-09T22:16:16.881Z,3.88
2022-08-09T22:18:52.981Z,4.10
2022-08-09T22:21:45.060Z,3.65
2022-08-09T22:26:04.478Z,4.00
2022-08-09T22:27:37.129Z,3.90
2022-08-09T22:30:31.352Z,3.70
2022-08-09T22:36:02.530Z,3.67
2022-08-09T22:38:19.272Z,3.42
2022-08-09T22:40:48.782Z,3.13
2022-08-09T22:44:01.782Z,3.53
2022-08-09T22:48:16.603Z,3.33
2022-08-09T22:49:10.363Z,3.50
2022-08-09T22:51:39.455Z,3.60
2022-08-09T22:54:11.380Z,3.97
2022-08-09T22:56:41.565Z,3.90
2022-08-09T22:59:57.671Z,3.70
2022-08-09T23:01:59.896Z,4.15
2022-08-09T23:04:27.224Z,3.65
2022-08-09T23:08:21.005Z,3.60
2022-08-09T23:10:06.535Z,3.50
2022-08-09T23:12:33.873Z,3.78
2022-08-09T23:15:01.179Z,3.53
2022-08-09T23:17:28.692Z,3.42
2022-08-09T23:20:09.473Z,4.45
2022-08-09T23:22:36.997Z,3.80
2022-08-09T23:25:05.330Z,4.03
2022-08-09T23:27:33.017Z,3.95
2022-08-09T23:30:00.481Z,3.67
2022-08-09T23:32:27.907Z,3.75
2022-08-09T23:34:55.204Z,3.80
2022-08-09T23:37:22.993Z,3.65
2022-08-09T23:39:53.064Z,3.83
2022-08-09T23:42:20.353Z,3.55
2022-08-09T23:44:47.665Z,3.70
2022-08-09T23:47:17.206Z,3.45
2022-08-09T23:49:44.516Z,2.75
2022-08-09T23:52:11.810Z,2.78
2022-08-09T23:54:39.196Z,2.80
2022-08-09T23:57:10.083Z,2.42
2022-08-09T23:59:58.127Z,2.20
